Elgin, Oklahoma
Current Conditions -  °F | °C
As of 2:58 AM on Thursday 23 Oct 2014 (Local Time) from KFSI Reporting Station
Broken Clouds Broken Clouds  
Wind Chill: 64°   Ceiling: 11000
Heat Index: 64°   Visibility: 10mi
Dew Point: 62°   Wind: 6mph
Humidity: 95%   Direction: 160°SSE
Pressure: 30.08"   Gusts: NA
Location:  34.78°N, 98.29°W
Report Text: KFSI 230758Z AUTO 16005KT 10SM FEW070 BKN110 18/17 A3008 RMK AO2 SLP180 T01760168
Loading
Personal Weather Stations






























Interactive Weather Map
Tropical Storm Tracking
New forecast layout! Learn more

10-Day Weather Forecast

Advertisements
Track Severe Weather on mobile